Terminal Aerodrome Forecast
Issued by NWS

Home | Current Version | Previous Version | Graphics & Text | Print | Product List | Glossary On
Versions: 1 2 3 4 5 6 7 8 9 10 11 12 13 14 15
037
FTUS43 KMPX 080520
TAFRWF
TAF
KRWF 080520Z 0806/0906 29017G27KT P6SM -SN OVC050
     FM080900 30017G24KT P6SM -SN OVC035
     FM081500 30017G23KT P6SM -SN OVC020
     FM082100 31015G21KT P6SM OVC025=

USA.gov is the U.S. government's official web portal to all federal, state and local government web resources and services.